sensor_id;sensor_type;location;lat;lon;timestamp;temperature;humidity
975;DHT22;6115;49.296;10.602;2022-10-31T00:02:56;10.20;76.70
975;DHT22;6115;49.296;10.602;2022-10-31T00:07:56;10.20;76.90
975;DHT22;6115;49.296;10.602;2022-10-31T00:12:57;10.10;76.90
975;DHT22;6115;49.296;10.602;2022-10-31T00:17:58;10.00;77.20
975;DHT22;6115;49.296;10.602;2022-10-31T00:23:02;10.10;77.60
975;DHT22;6115;49.296;10.602;2022-10-31T00:28:04;10.10;78.20
975;DHT22;6115;49.296;10.602;2022-10-31T00:33:05;10.20;78.90
975;DHT22;6115;49.296;10.602;2022-10-31T00:38:05;10.20;78.90
975;DHT22;6115;49.296;10.602;2022-10-31T00:43:06;10.20;79.60
975;DHT22;6115;49.296;10.602;2022-10-31T00:48:06;10.20;79.70
975;DHT22;6115;49.296;10.602;2022-10-31T00:53:07;10.20;79.50
975;DHT22;6115;49.296;10.602;2022-10-31T00:58:08;10.20;79.30
975;DHT22;6115;49.296;10.602;2022-10-31T01:03:08;10.10;78.90
975;DHT22;6115;49.296;10.602;2022-10-31T01:08:09;10.00;79.00
975;DHT22;6115;49.296;10.602;2022-10-31T01:13:09;10.00;78.80
975;DHT22;6115;49.296;10.602;2022-10-31T01:18:10;9.90;79.70
975;DHT22;6115;49.296;10.602;2022-10-31T01:23:10;9.90;79.70
975;DHT22;6115;49.296;10.602;2022-10-31T01:28:11;9.90;79.70
975;DHT22;6115;49.296;10.602;2022-10-31T01:33:11;9.80;79.60
975;DHT22;6115;49.296;10.602;2022-10-31T01:38:12;9.80;79.60
975;DHT22;6115;49.296;10.602;2022-10-31T01:43:13;9.80;79.50
975;DHT22;6115;49.296;10.602;2022-10-31T01:48:15;9.70;79.40
975;DHT22;6115;49.296;10.602;2022-10-31T01:53:17;9.60;79.40
975;DHT22;6115;49.296;10.602;2022-10-31T01:58:24;9.60;79.40
975;DHT22;6115;49.296;10.602;2022-10-31T02:03:26;9.60;79.40
975;DHT22;6115;49.296;10.602;2022-10-31T02:08:32;9.50;79.30
975;DHT22;6115;49.296;10.602;2022-10-31T02:13:40;9.50;79.30
975;DHT22;6115;49.296;10.602;2022-10-31T02:18:40;9.40;79.20
975;DHT22;6115;49.296;10.602;2022-10-31T02:24:06;9.40;78.80
975;DHT22;6115;49.296;10.602;2022-10-31T02:50:47;9.20;78.30
975;DHT22;6115;49.296;10.602;2022-10-31T02:55:55;9.20;78.20
975;DHT22;6115;49.296;10.602;2022-10-31T03:06:26;9.10;78.20
975;DHT22;6115;49.296;10.602;2022-10-31T03:11:44;9.10;78.60
975;DHT22;6115;49.296;10.602;2022-10-31T03:16:50;9.10;78.60
975;DHT22;6115;49.296;10.602;2022-10-31T03:26:59;9.10;79.00
975;DHT22;6115;49.296;10.602;2022-10-31T03:32:07;9.00;78.90
975;DHT22;6115;49.296;10.602;2022-10-31T03:37:11;9.00;78.80
975;DHT22;6115;49.296;10.602;2022-10-31T03:42:20;9.00;78.80
975;DHT22;6115;49.296;10.602;2022-10-31T03:47:22;9.00;78.80
975;DHT22;6115;49.296;10.602;2022-10-31T03:52:36;9.00;78.90
975;DHT22;6115;49.296;10.602;2022-10-31T04:03:12;9.10;79.00
975;DHT22;6115;49.296;10.602;2022-10-31T04:08:17;9.10;78.90
975;DHT22;6115;49.296;10.602;2022-10-31T04:13:23;9.00;78.90
975;DHT22;6115;49.296;10.602;2022-10-31T04:18:25;8.80;78.70
975;DHT22;6115;49.296;10.602;2022-10-31T04:23:26;8.70;78.60
975;DHT22;6115;49.296;10.602;2022-10-31T04:28:27;8.60;78.50
975;DHT22;6115;49.296;10.602;2022-10-31T04:33:28;8.60;78.50
975;DHT22;6115;49.296;10.602;2022-10-31T04:38:28;8.50;78.40
975;DHT22;6115;49.296;10.602;2022-10-31T04:43:29;8.50;78.40
975;DHT22;6115;49.296;10.602;2022-10-31T04:48:30;8.50;78.40
975;DHT22;6115;49.296;10.602;2022-10-31T04:53:30;8.50;78.40
975;DHT22;6115;49.296;10.602;2022-10-31T04:58:31;8.50;78.40
975;DHT22;6115;49.296;10.602;2022-10-31T05:03:31;8.40;78.30
975;DHT22;6115;49.296;10.602;2022-10-31T05:08:32;8.40;78.30
975;DHT22;6115;49.296;10.602;2022-10-31T05:13:32;8.40;78.30
975;DHT22;6115;49.296;10.602;2022-10-31T05:18:33;8.30;78.20
975;DHT22;6115;49.296;10.602;2022-10-31T05:23:33;8.30;78.30
975;DHT22;6115;49.296;10.602;2022-10-31T05:28:34;8.30;78.20
975;DHT22;6115;49.296;10.602;2022-10-31T05:33:34;8.30;78.20
975;DHT22;6115;49.296;10.602;2022-10-31T05:38:35;8.20;78.20
975;DHT22;6115;49.296;10.602;2022-10-31T05:43:35;8.20;78.60
975;DHT22;6115;49.296;10.602;2022-10-31T05:48:37;8.20;78.10
975;DHT22;6115;49.296;10.602;2022-10-31T05:53:37;8.30;78.30
975;DHT22;6115;49.296;10.602;2022-10-31T05:58:38;8.20;78.10
975;DHT22;6115;49.296;10.602;2022-10-31T06:03:38;8.20;78.10
975;DHT22;6115;49.296;10.602;2022-10-31T06:08:40;8.20;78.10
975;DHT22;6115;49.296;10.602;2022-10-31T06:13:41;8.10;78.10
975;DHT22;6115;49.296;10.602;2022-10-31T06:18:41;8.10;78.10
975;DHT22;6115;49.296;10.602;2022-10-31T06:23:42;8.20;78.10
975;DHT22;6115;49.296;10.602;2022-10-31T06:28:42;8.20;78.10
975;DHT22;6115;49.296;10.602;2022-10-31T06:33:43;8.20;78.10
975;DHT22;6115;49.296;10.602;2022-10-31T06:38:43;8.20;78.10
975;DHT22;6115;49.296;10.602;2022-10-31T06:43:46;8.20;78.20
975;DHT22;6115;49.296;10.602;2022-10-31T06:48:47;8.30;78.30
975;DHT22;6115;49.296;10.602;2022-10-31T06:53:48;8.40;78.30
975;DHT22;6115;49.296;10.602;2022-10-31T06:58:48;8.50;78.40
975;DHT22;6115;49.296;10.602;2022-10-31T07:03:49;8.50;78.40
975;DHT22;6115;49.296;10.602;2022-10-31T07:08:50;8.50;78.90
975;DHT22;6115;49.296;10.602;2022-10-31T07:13:50;8.50;79.10
975;DHT22;6115;49.296;10.602;2022-10-31T07:18:51;8.60;79.40
975;DHT22;6115;49.296;10.602;2022-10-31T07:23:51;8.60;79.60
975;DHT22;6115;49.296;10.602;2022-10-31T07:28:52;8.70;79.70
975;DHT22;6115;49.296;10.602;2022-10-31T07:33:52;8.80;79.90
975;DHT22;6115;49.296;10.602;2022-10-31T07:38:53;8.90;80.30
975;DHT22;6115;49.296;10.602;2022-10-31T07:43:53;9.10;80.70
975;DHT22;6115;49.296;10.602;2022-10-31T07:48:54;9.20;81.00
975;DHT22;6115;49.296;10.602;2022-10-31T07:53:55;9.40;81.40
975;DHT22;6115;49.296;10.602;2022-10-31T07:58:55;9.60;81.70
975;DHT22;6115;49.296;10.602;2022-10-31T08:03:56;9.70;81.70
975;DHT22;6115;49.296;10.602;2022-10-31T08:08:56;9.90;82.10
975;DHT22;6115;49.296;10.602;2022-10-31T08:13:57;10.10;81.50
975;DHT22;6115;49.296;10.602;2022-10-31T08:18:57;10.30;81.70
975;DHT22;6115;49.296;10.602;2022-10-31T08:23:58;10.60;82.80
975;DHT22;6115;49.296;10.602;2022-10-31T08:28:58;10.80;82.30
975;DHT22;6115;49.296;10.602;2022-10-31T08:33:59;11.10;82.50
975;DHT22;6115;49.296;10.602;2022-10-31T08:39:00;11.40;82.80
975;DHT22;6115;49.296;10.602;2022-10-31T08:44:00;11.60;82.80
975;DHT22;6115;49.296;10.602;2022-10-31T08:49:01;12.00;83.00
975;DHT22;6115;49.296;10.602;2022-10-31T08:54:02;12.30;82.80
975;DHT22;6115;49.296;10.602;2022-10-31T08:59:02;12.70;82.50
975;DHT22;6115;49.296;10.602;2022-10-31T09:04:03;13.00;82.40
975;DHT22;6115;49.296;10.602;2022-10-31T09:09:03;13.40;82.10
975;DHT22;6115;49.296;10.602;2022-10-31T09:14:04;13.80;82.50
975;DHT22;6115;49.296;10.602;2022-10-31T09:19:04;14.30;81.70
975;DHT22;6115;49.296;10.602;2022-10-31T09:24:05;14.80;81.20
975;DHT22;6115;49.296;10.602;2022-10-31T09:29:06;15.60;79.60
975;DHT22;6115;49.296;10.602;2022-10-31T09:34:06;16.20;76.50
975;DHT22;6115;49.296;10.602;2022-10-31T09:39:07;16.70;75.40
975;DHT22;6115;49.296;10.602;2022-10-31T09:44:18;17.20;72.70
975;DHT22;6115;49.296;10.602;2022-10-31T09:54:52;18.00;69.70
975;DHT22;6115;49.296;10.602;2022-10-31T09:59:54;18.60;67.70
975;DHT22;6115;49.296;10.602;2022-10-31T10:04:59;18.90;67.60
975;DHT22;6115;49.296;10.602;2022-10-31T10:10:02;19.00;66.50
975;DHT22;6115;49.296;10.602;2022-10-31T10:20:41;19.30;65.20
975;DHT22;6115;49.296;10.602;2022-10-31T10:25:46;19.40;64.80
975;DHT22;6115;49.296;10.602;2022-10-31T10:31:03;19.50;64.60
975;DHT22;6115;49.296;10.602;2022-10-31T10:36:15;19.90;63.90
975;DHT22;6115;49.296;10.602;2022-10-31T10:41:20;19.90;62.90
975;DHT22;6115;49.296;10.602;2022-10-31T10:46:43;20.00;63.60
975;DHT22;6115;49.296;10.602;2022-10-31T11:02:35;20.80;59.90
975;DHT22;6115;49.296;10.602;2022-10-31T11:07:39;21.10;59.00
975;DHT22;6115;49.296;10.602;2022-10-31T11:12:41;21.00;57.60
975;DHT22;6115;49.296;10.602;2022-10-31T11:17:42;20.70;56.90
975;DHT22;6115;49.296;10.602;2022-10-31T11:22:44;20.80;56.60
975;DHT22;6115;49.296;10.602;2022-10-31T11:27:46;20.80;55.60
975;DHT22;6115;49.296;10.602;2022-10-31T11:32:49;21.20;54.80
975;DHT22;6115;49.296;10.602;2022-10-31T11:37:53;21.50;54.60
975;DHT22;6115;49.296;10.602;2022-10-31T11:42:56;21.60;53.50
975;DHT22;6115;49.296;10.602;2022-10-31T11:47:59;21.80;52.90
975;DHT22;6115;49.296;10.602;2022-10-31T11:53:01;21.90;53.10
975;DHT22;6115;49.296;10.602;2022-10-31T11:58:03;22.30;52.90
975;DHT22;6115;49.296;10.602;2022-10-31T12:03:26;22.60;53.80
975;DHT22;6115;49.296;10.602;2022-10-31T12:08:31;22.70;52.90
975;DHT22;6115;49.296;10.602;2022-10-31T12:13:38;22.60;52.30
975;DHT22;6115;49.296;10.602;2022-10-31T12:18:59;22.40;52.10
975;DHT22;6115;49.296;10.602;2022-10-31T12:24:13;22.30;52.00
975;DHT22;6115;49.296;10.602;2022-10-31T12:35:08;21.60;51.40
975;DHT22;6115;49.296;10.602;2022-10-31T12:40:39;21.30;51.10
975;DHT22;6115;49.296;10.602;2022-10-31T12:45:59;21.30;52.10
975;DHT22;6115;49.296;10.602;2022-10-31T13:12:32;21.20;53.70
975;DHT22;6115;49.296;10.602;2022-10-31T13:17:40;21.20;53.60
975;DHT22;6115;49.296;10.602;2022-10-31T13:22:45;21.40;53.80
975;DHT22;6115;49.296;10.602;2022-10-31T13:33:51;21.40;53.50
975;DHT22;6115;49.296;10.602;2022-10-31T13:39:11;21.70;52.90
975;DHT22;6115;49.296;10.602;2022-10-31T13:54:34;21.00;54.50
975;DHT22;6115;49.296;10.602;2022-10-31T13:59:37;21.00;54.70
975;DHT22;6115;49.296;10.602;2022-10-31T14:04:44;20.90;55.30
975;DHT22;6115;49.296;10.602;2022-10-31T14:15:03;21.00;55.60
975;DHT22;6115;49.296;10.602;2022-10-31T14:25:30;21.00;56.60
975;DHT22;6115;49.296;10.602;2022-10-31T14:30:31;21.10;55.90
975;DHT22;6115;49.296;10.602;2022-10-31T14:35:56;21.10;56.20
975;DHT22;6115;49.296;10.602;2022-10-31T14:41:34;21.00;56.90
975;DHT22;6115;49.296;10.602;2022-10-31T14:52:07;20.80;57.20
975;DHT22;6115;49.296;10.602;2022-10-31T14:57:22;20.70;57.20
975;DHT22;6115;49.296;10.602;2022-10-31T15:02:28;20.70;58.10
975;DHT22;6115;49.296;10.602;2022-10-31T15:07:30;20.60;57.80
975;DHT22;6115;49.296;10.602;2022-10-31T15:12:31;20.40;58.50
975;DHT22;6115;49.296;10.602;2022-10-31T15:17:32;20.30;59.30
975;DHT22;6115;49.296;10.602;2022-10-31T15:22:32;20.30;57.90
975;DHT22;6115;49.296;10.602;2022-10-31T15:27:33;20.10;58.70
975;DHT22;6115;49.296;10.602;2022-10-31T15:32:34;20.00;59.00
975;DHT22;6115;49.296;10.602;2022-10-31T15:37:35;19.90;59.00
975;DHT22;6115;49.296;10.602;2022-10-31T15:42:39;19.80;58.90
975;DHT22;6115;49.296;10.602;2022-10-31T15:53:02;19.50;60.00
975;DHT22;6115;49.296;10.602;2022-10-31T15:58:11;19.30;60.20
975;DHT22;6115;49.296;10.602;2022-10-31T16:13:34;18.60;62.20
975;DHT22;6115;49.296;10.602;2022-10-31T16:18:37;18.10;62.10
975;DHT22;6115;49.296;10.602;2022-10-31T16:23:45;17.60;63.50
975;DHT22;6115;49.296;10.602;2022-10-31T16:28:57;17.40;64.30
975;DHT22;6115;49.296;10.602;2022-10-31T16:34:15;17.10;65.10
975;DHT22;6115;49.296;10.602;2022-10-31T16:39:17;16.80;66.00
975;DHT22;6115;49.296;10.602;2022-10-31T16:44:26;16.60;67.20
975;DHT22;6115;49.296;10.602;2022-10-31T16:49:27;16.30;67.60
975;DHT22;6115;49.296;10.602;2022-10-31T16:54:28;16.10;68.40
975;DHT22;6115;49.296;10.602;2022-10-31T16:59:30;16.00;68.50
975;DHT22;6115;49.296;10.602;2022-10-31T17:04:31;15.80;69.00
975;DHT22;6115;49.296;10.602;2022-10-31T17:09:31;15.40;70.60
975;DHT22;6115;49.296;10.602;2022-10-31T17:14:33;15.00;71.60
975;DHT22;6115;49.296;10.602;2022-10-31T17:19:34;15.00;71.30
975;DHT22;6115;49.296;10.602;2022-10-31T17:24:34;14.80;71.70
975;DHT22;6115;49.296;10.602;2022-10-31T17:29:35;14.70;71.80
975;DHT22;6115;49.296;10.602;2022-10-31T17:34:35;14.60;71.90
975;DHT22;6115;49.296;10.602;2022-10-31T17:39:36;14.50;72.50
975;DHT22;6115;49.296;10.602;2022-10-31T17:44:36;14.40;72.30
975;DHT22;6115;49.296;10.602;2022-10-31T17:49:37;14.30;73.40
975;DHT22;6115;49.296;10.602;2022-10-31T17:54:37;14.20;73.30
975;DHT22;6115;49.296;10.602;2022-10-31T17:59:38;14.10;73.70
975;DHT22;6115;49.296;10.602;2022-10-31T18:04:38;14.00;73.90
975;DHT22;6115;49.296;10.602;2022-10-31T18:09:42;13.90;74.00
975;DHT22;6115;49.296;10.602;2022-10-31T18:14:43;13.80;74.10
975;DHT22;6115;49.296;10.602;2022-10-31T18:19:43;13.70;74.20
975;DHT22;6115;49.296;10.602;2022-10-31T18:24:45;13.50;74.10
975;DHT22;6115;49.296;10.602;2022-10-31T18:29:45;13.40;74.10
975;DHT22;6115;49.296;10.602;2022-10-31T18:34:46;13.40;74.30
975;DHT22;6115;49.296;10.602;2022-10-31T18:39:46;13.20;74.10
975;DHT22;6115;49.296;10.602;2022-10-31T18:44:47;13.00;73.90
975;DHT22;6115;49.296;10.602;2022-10-31T18:49:50;12.90;74.40
975;DHT22;6115;49.296;10.602;2022-10-31T18:54:50;12.70;74.40
975;DHT22;6115;49.296;10.602;2022-10-31T18:59:51;12.70;74.80
975;DHT22;6115;49.296;10.602;2022-10-31T19:04:51;12.50;75.20
975;DHT22;6115;49.296;10.602;2022-10-31T19:09:52;12.40;75.80
975;DHT22;6115;49.296;10.602;2022-10-31T19:14:52;12.20;75.90
975;DHT22;6115;49.296;10.602;2022-10-31T19:19:53;12.10;76.00
975;DHT22;6115;49.296;10.602;2022-10-31T19:24:54;12.00;76.00
975;DHT22;6115;49.296;10.602;2022-10-31T19:29:54;11.80;75.80
975;DHT22;6115;49.296;10.602;2022-10-31T19:34:55;11.70;75.60
975;DHT22;6115;49.296;10.602;2022-10-31T19:39:56;11.70;75.60
975;DHT22;6115;49.296;10.602;2022-10-31T19:44:56;11.60;75.60
975;DHT22;6115;49.296;10.602;2022-10-31T19:49:57;11.50;75.50
975;DHT22;6115;49.296;10.602;2022-10-31T19:54:57;11.50;75.50
975;DHT22;6115;49.296;10.602;2022-10-31T19:59:58;11.40;75.40
975;DHT22;6115;49.296;10.602;2022-10-31T20:04:58;11.30;75.20
975;DHT22;6115;49.296;10.602;2022-10-31T20:09:59;11.20;75.10
975;DHT22;6115;49.296;10.602;2022-10-31T20:14:59;11.00;75.60
975;DHT22;6115;49.296;10.602;2022-10-31T20:20:00;11.00;76.10
975;DHT22;6115;49.296;10.602;2022-10-31T20:25:06;10.90;76.10
975;DHT22;6115;49.296;10.602;2022-10-31T20:30:07;10.90;76.60
975;DHT22;6115;49.296;10.602;2022-10-31T20:35:08;10.90;76.70
975;DHT22;6115;49.296;10.602;2022-10-31T20:40:10;10.80;77.00
975;DHT22;6115;49.296;10.602;2022-10-31T20:45:10;10.70;77.50
975;DHT22;6115;49.296;10.602;2022-10-31T20:50:11;10.60;77.90
975;DHT22;6115;49.296;10.602;2022-10-31T20:55:11;10.60;78.20
975;DHT22;6115;49.296;10.602;2022-10-31T21:00:12;10.60;78.60
975;DHT22;6115;49.296;10.602;2022-10-31T21:05:13;10.50;78.90
975;DHT22;6115;49.296;10.602;2022-10-31T21:10:14;10.50;79.30
975;DHT22;6115;49.296;10.602;2022-10-31T21:15:14;10.50;79.30
975;DHT22;6115;49.296;10.602;2022-10-31T21:20:16;10.50;78.90
975;DHT22;6115;49.296;10.602;2022-10-31T21:25:17;10.40;78.40
975;DHT22;6115;49.296;10.602;2022-10-31T21:30:18;10.30;78.10
975;DHT22;6115;49.296;10.602;2022-10-31T21:35:18;10.40;78.00
975;DHT22;6115;49.296;10.602;2022-10-31T21:40:19;10.40;77.70
975;DHT22;6115;49.296;10.602;2022-10-31T21:45:19;10.40;77.80
975;DHT22;6115;49.296;10.602;2022-10-31T21:50:20;10.40;77.70
975;DHT22;6115;49.296;10.602;2022-10-31T21:55:21;10.40;78.30
975;DHT22;6115;49.296;10.602;2022-10-31T22:00:21;10.40;79.10
975;DHT22;6115;49.296;10.602;2022-10-31T22:05:22;10.40;79.20
975;DHT22;6115;49.296;10.602;2022-10-31T22:10:22;10.50;79.50
975;DHT22;6115;49.296;10.602;2022-10-31T22:15:23;10.50;80.10
975;DHT22;6115;49.296;10.602;2022-10-31T22:20:23;10.60;80.90
975;DHT22;6115;49.296;10.602;2022-10-31T22:25:25;10.70;81.60
975;DHT22;6115;49.296;10.602;2022-10-31T22:30:26;10.80;82.10
975;DHT22;6115;49.296;10.602;2022-10-31T22:35:26;10.90;82.10
975;DHT22;6115;49.296;10.602;2022-10-31T22:40:27;10.80;82.10
975;DHT22;6115;49.296;10.602;2022-10-31T22:45:27;10.80;82.10
975;DHT22;6115;49.296;10.602;2022-10-31T22:50:28;10.80;81.90
975;DHT22;6115;49.296;10.602;2022-10-31T22:55:28;10.80;81.60
975;DHT22;6115;49.296;10.602;2022-10-31T23:00:29;10.70;81.30
975;DHT22;6115;49.296;10.602;2022-10-31T23:05:29;10.70;81.40
975;DHT22;6115;49.296;10.602;2022-10-31T23:10:32;10.70;81.40
975;DHT22;6115;49.296;10.602;2022-10-31T23:15:36;10.70;81.40
975;DHT22;6115;49.296;10.602;2022-10-31T23:20:37;10.70;81.20
975;DHT22;6115;49.296;10.602;2022-10-31T23:25:37;10.70;81.20
975;DHT22;6115;49.296;10.602;2022-10-31T23:30:56;10.70;81.10
975;DHT22;6115;49.296;10.602;2022-10-31T23:35:57;10.70;80.90
975;DHT22;6115;49.296;10.602;2022-10-31T23:40:57;10.60;80.60
975;DHT22;6115;49.296;10.602;2022-10-31T23:45:58;10.60;80.10
975;DHT22;6115;49.296;10.602;2022-10-31T23:50:58;10.60;80.00
975;DHT22;6115;49.296;10.602;2022-10-31T23:55:59;10.50;79.70
